createdAt,value
2023-02-22T00:00:49.070Z,9.68
2023-02-22T00:03:27.589Z,9.65
2023-02-22T00:05:59.957Z,9.65
2023-02-22T00:08:30.650Z,9.62
2023-02-22T00:11:03.230Z,9.58
2023-02-22T00:13:32.842Z,9.53
2023-02-22T00:16:00.365Z,9.53
2023-02-22T00:18:29.057Z,9.51
2023-02-22T00:21:01.178Z,9.47
2023-02-22T00:23:30.439Z,9.46
2023-02-22T00:25:59.630Z,9.41
2023-02-22T00:28:27.055Z,9.36
2023-02-22T00:30:55.174Z,9.33
2023-02-22T00:33:22.264Z,9.27
2023-02-22T00:35:49.411Z,9.25
2023-02-22T00:38:18.714Z,9.21
2023-02-22T00:40:45.799Z,9.14
2023-02-22T00:43:13.028Z,9.09
2023-02-22T00:45:41.441Z,9.06
2023-02-22T00:48:09.987Z,9.04
2023-02-22T00:50:37.814Z,9.03
2023-02-22T00:53:06.167Z,9.05
2023-02-22T00:55:36.482Z,9.04
2023-02-22T00:58:04.722Z,9.06
2023-02-22T01:00:37.402Z,9.06
2023-02-22T01:03:06.096Z,9.08
2023-02-22T01:05:33.790Z,9.11
2023-02-22T01:08:02.821Z,9.14
2023-02-22T01:10:31.401Z,9.18
2023-02-22T01:13:00.239Z,9.18
2023-02-22T01:15:31.080Z,9.20
2023-02-22T01:17:59.833Z,9.23
2023-02-22T01:20:28.142Z,9.24
2023-02-22T01:22:57.301Z,9.29
2023-02-22T01:25:27.810Z,9.33
2023-02-22T01:27:55.886Z,9.31
2023-02-22T01:30:27.164Z,9.23
2023-02-22T01:32:54.390Z,9.19
2023-02-22T01:35:28.170Z,9.18
2023-02-22T01:37:56.516Z,9.17
2023-02-22T01:40:34.135Z,9.10
2023-02-22T01:43:05.852Z,9.06
2023-02-22T01:45:35.663Z,8.99
2023-02-22T01:48:08.836Z,8.92
2023-02-22T01:50:40.197Z,8.91
2023-02-22T01:53:09.583Z,8.82
2023-02-22T01:55:39.201Z,8.71
2023-02-22T01:58:07.313Z,8.65
2023-02-22T02:00:34.824Z,8.58
2023-02-22T02:03:19.090Z,8.55
2023-02-22T02:05:46.361Z,8.53
2023-02-22T02:08:42.712Z,8.53
2023-02-22T02:11:10.466Z,8.53
2023-02-22T02:13:37.534Z,8.52
2023-02-22T02:16:05.091Z,8.53
2023-02-22T02:18:32.801Z,8.54
2023-02-22T02:21:32.196Z,8.51
2023-02-22T02:24:45.656Z,8.50
2023-02-22T02:27:14.882Z,8.46
2023-02-22T02:30:12.162Z,8.38
2023-02-22T02:33:08.809Z,8.34
2023-02-22T02:35:45.785Z,8.28
2023-02-22T02:38:32.055Z,7.95
2023-02-22T02:41:19.764Z,8.12
2023-02-22T02:43:52.194Z,8.17
2023-02-22T02:46:25.209Z,8.19
2023-02-22T02:49:07.476Z,8.14
2023-02-22T02:51:42.073Z,8.17
2023-02-22T02:54:10.668Z,8.19
2023-02-22T02:56:37.679Z,8.21
2023-02-22T02:59:23.751Z,8.23
2023-02-22T03:02:29.240Z,8.26
2023-02-22T03:04:56.212Z,8.23
2023-02-22T03:07:34.180Z,8.15
2023-02-22T03:10:01.086Z,8.16
2023-02-22T03:12:38.427Z,8.13
2023-02-22T03:15:05.445Z,8.15
2023-02-22T03:17:41.608Z,8.11
2023-02-22T03:20:33.605Z,8.03
2023-02-22T03:23:10.868Z,8.02
2023-02-22T03:25:56.139Z,7.96
2023-02-22T03:28:26.858Z,7.92
2023-02-22T03:31:11.180Z,7.86
2023-02-22T03:33:52.018Z,7.83
2023-02-22T03:36:34.099Z,7.77
2023-02-22T03:39:04.454Z,7.74
2023-02-22T03:41:38.848Z,7.73
2023-02-22T03:44:11.630Z,7.75
2023-02-22T03:46:41.260Z,7.74
2023-02-22T03:49:14.829Z,7.75
2023-02-22T03:51:43.219Z,7.75
2023-02-22T03:54:16.513Z,7.75
2023-02-22T03:56:55.203Z,7.74
2023-02-22T03:59:27.580Z,7.72
2023-02-22T04:01:55.842Z,7.72
2023-02-22T04:04:24.594Z,7.71
2023-02-22T04:06:52.453Z,7.73
2023-02-22T04:09:19.919Z,7.75
2023-02-22T04:11:47.114Z,7.77
2023-02-22T04:14:14.823Z,7.74
2023-02-22T04:16:41.784Z,7.74
2023-02-22T04:19:10.150Z,7.75
2023-02-22T04:21:38.875Z,7.68
2023-02-22T04:24:09.300Z,7.70
2023-02-22T04:26:36.391Z,7.47
2023-02-22T04:29:05.644Z,7.43
2023-02-22T04:31:38.652Z,7.35
2023-02-22T04:34:06.399Z,7.21
2023-02-22T04:36:37.629Z,7.29
2023-02-22T04:39:05.454Z,7.30
2023-02-22T04:41:34.668Z,7.20
2023-02-22T04:44:01.841Z,7.21
2023-02-22T04:46:29.375Z,7.25
2023-02-22T04:48:57.840Z,7.32
2023-02-22T04:51:27.928Z,7.33
2023-02-22T04:54:17.408Z,7.34
2023-02-22T04:56:47.167Z,7.29
2023-02-22T04:59:14.433Z,7.25
2023-02-22T05:01:44.849Z,7.23
2023-02-22T05:04:11.819Z,7.19
2023-02-22T05:06:38.738Z,7.19
2023-02-22T05:09:06.358Z,7.19
2023-02-22T05:11:33.370Z,7.16
2023-02-22T05:14:00.464Z,7.16
2023-02-22T05:16:27.421Z,7.16
2023-02-22T05:18:54.478Z,7.13
2023-02-22T05:21:21.604Z,7.11
2023-02-22T05:23:48.681Z,7.11
2023-02-22T05:26:15.762Z,7.12
2023-02-22T05:28:42.846Z,7.12
2023-02-22T05:31:10.034Z,7.17
2023-02-22T05:33:37.082Z,7.12
2023-02-22T05:36:04.266Z,7.12
2023-02-22T05:38:31.351Z,7.12
2023-02-22T05:40:58.450Z,7.12
2023-02-22T05:43:25.445Z,7.13
2023-02-22T05:45:52.444Z,7.17
2023-02-22T05:48:21.726Z,7.13
2023-02-22T05:50:50.196Z,7.07
2023-02-22T05:53:17.366Z,7.08
2023-02-22T05:55:46.438Z,7.10
2023-02-22T05:58:13.668Z,7.12
2023-02-22T06:00:40.881Z,7.12
2023-02-22T06:03:09.962Z,7.12
2023-02-22T06:05:39.835Z,7.14
2023-02-22T06:08:07.821Z,7.16
2023-02-22T06:10:35.243Z,7.18
2023-02-22T06:13:05.434Z,7.20
2023-02-22T06:15:32.475Z,7.21
2023-02-22T06:18:00.440Z,7.25
2023-02-22T06:20:30.023Z,7.26
2023-02-22T06:22:58.865Z,7.23
2023-02-22T06:25:31.103Z,7.28
2023-02-22T06:27:58.979Z,7.27
2023-02-22T06:30:27.578Z,7.36
2023-02-22T06:32:55.003Z,7.43
2023-02-22T06:35:22.838Z,7.41
2023-02-22T06:37:50.137Z,7.44
2023-02-22T06:40:17.237Z,7.53
2023-02-22T06:42:44.297Z,7.56
2023-02-22T06:45:11.762Z,7.61
2023-02-22T06:47:41.489Z,7.67
2023-02-22T06:50:20.722Z,7.71
2023-02-22T06:52:48.319Z,7.75
2023-02-22T06:55:33.064Z,7.88
2023-02-22T06:58:00.895Z,7.99
2023-02-22T07:00:29.575Z,8.11
2023-02-22T07:02:58.241Z,8.13
2023-02-22T07:05:26.852Z,8.19
2023-02-22T07:07:55.539Z,8.34
2023-02-22T07:10:26.860Z,8.44
2023-02-22T07:12:54.518Z,8.54
2023-02-22T07:15:23.984Z,8.54
2023-02-22T07:17:51.989Z,8.64
2023-02-22T07:20:20.949Z,8.73
2023-02-22T07:22:49.130Z,8.86
2023-02-22T07:25:16.605Z,8.99
2023-02-22T07:27:44.028Z,9.09
2023-02-22T07:30:26.273Z,9.17
2023-02-22T07:32:55.568Z,9.28
2023-02-22T07:35:25.784Z,9.41
2023-02-22T07:37:55.789Z,9.52
2023-02-22T07:40:23.993Z,9.63
2023-02-22T07:42:59.925Z,9.74
2023-02-22T07:45:32.103Z,9.83
2023-02-22T07:48:00.491Z,9.96
2023-02-22T07:50:30.712Z,10.11
2023-02-22T07:53:00.267Z,10.20
2023-02-22T07:55:30.042Z,10.30
2023-02-22T07:57:59.586Z,10.39
2023-02-22T08:00:32.839Z,10.48
2023-02-22T08:03:04.416Z,10.57
2023-02-22T08:05:32.914Z,10.69
2023-02-22T08:07:59.946Z,10.81
2023-02-22T08:10:27.358Z,10.92
2023-02-22T08:12:56.424Z,11.08
2023-02-22T08:15:40.715Z,11.17
2023-02-22T08:18:10.825Z,11.28
2023-02-22T08:20:39.353Z,11.41
2023-02-22T08:23:07.708Z,11.52
2023-02-22T08:25:35.502Z,11.65
2023-02-22T08:28:23.866Z,11.84
2023-02-22T08:30:52.525Z,12.00
2023-02-22T08:33:20.452Z,12.18
2023-02-22T08:35:49.984Z,12.31
2023-02-22T08:38:30.446Z,12.42
2023-02-22T08:40:57.634Z,12.47
2023-02-22T08:43:25.145Z,12.62
2023-02-22T08:45:53.562Z,12.67
2023-02-22T08:48:21.575Z,12.74
2023-02-22T08:50:48.645Z,12.90
2023-02-22T08:53:17.160Z,12.96
2023-02-22T08:55:44.912Z,12.97
2023-02-22T08:58:12.500Z,12.99
2023-02-22T09:00:41.348Z,13.09
2023-02-22T09:03:12.127Z,13.04
2023-02-22T09:05:39.362Z,13.15
2023-02-22T09:08:06.659Z,13.34
2023-02-22T09:10:35.380Z,13.46
2023-02-22T09:13:04.257Z,13.51
2023-02-22T09:15:32.097Z,13.28
2023-02-22T09:18:00.097Z,13.57
2023-02-22T09:20:28.521Z,13.76
2023-02-22T09:22:55.931Z,13.89
2023-02-22T09:25:24.019Z,14.02
2023-02-22T09:27:54.365Z,14.03
2023-02-22T09:30:24.116Z,14.21
2023-02-22T09:32:58.076Z,14.34
2023-02-22T09:35:27.690Z,14.32
2023-02-22T09:37:56.936Z,14.63
2023-02-22T09:40:26.201Z,14.79
2023-02-22T09:43:14.390Z,15.00
2023-02-22T09:45:57.177Z,15.07
2023-02-22T09:48:25.488Z,15.07
2023-02-22T09:50:58.656Z,15.38
2023-02-22T09:53:31.166Z,15.49
2023-02-22T09:56:05.040Z,15.62
2023-02-22T09:58:36.965Z,15.72
2023-02-22T10:01:23.164Z,15.75
2023-02-22T10:03:50.680Z,15.85
2023-02-22T10:06:24.212Z,15.93
2023-02-22T10:08:56.635Z,15.98
2023-02-22T10:11:35.782Z,16.05
2023-02-22T10:14:21.309Z,15.92
2023-02-22T10:17:11.599Z,15.79
2023-02-22T10:19:47.719Z,15.94
2023-02-22T10:22:17.760Z,16.09
2023-02-22T10:25:05.068Z,16.26
2023-02-22T10:28:20.018Z,16.44
2023-02-22T10:31:02.596Z,16.56
2023-02-22T10:33:40.363Z,16.66
2023-02-22T10:36:20.365Z,16.66
2023-02-22T10:38:58.729Z,16.79
2023-02-22T10:41:28.655Z,16.89
2023-02-22T10:43:56.091Z,17.13
2023-02-22T10:46:26.988Z,17.30
2023-02-22T10:49:02.844Z,17.32
2023-02-22T10:51:30.745Z,17.46
2023-02-22T10:54:15.809Z,17.36
2023-02-22T10:56:52.632Z,17.67
2023-02-22T10:59:40.288Z,17.51
2023-02-22T11:02:24.172Z,17.57
2023-02-22T11:04:54.504Z,17.61
2023-02-22T11:07:29.858Z,17.64
2023-02-22T11:10:02.917Z,17.67
2023-02-22T11:12:37.825Z,17.72
2023-02-22T11:15:17.017Z,17.93
2023-02-22T11:17:46.776Z,18.07
2023-02-22T11:20:25.762Z,18.22
2023-02-22T11:23:02.110Z,18.17
2023-02-22T11:25:38.461Z,18.09
2023-02-22T11:28:20.964Z,18.51
2023-02-22T11:30:52.284Z,18.53
2023-02-22T11:33:26.019Z,18.75
2023-02-22T11:35:58.702Z,18.88
2023-02-22T11:38:34.460Z,18.71
2023-02-22T11:41:22.182Z,18.78
2023-02-22T11:43:51.234Z,19.11
2023-02-22T11:46:20.106Z,19.42
2023-02-22T11:49:00.126Z,19.63
2023-02-22T11:51:48.808Z,19.71
2023-02-22T11:54:33.266Z,19.68
2023-02-22T11:57:16.660Z,20.12
2023-02-22T12:00:02.333Z,20.28
2023-02-22T12:13:49.376Z,19.92
2023-02-22T12:16:19.525Z,19.67
2023-02-22T12:19:12.317Z,20.08
2023-02-22T12:21:44.166Z,20.26
2023-02-22T12:24:25.293Z,20.28
2023-02-22T12:27:00.745Z,20.68
2023-02-22T12:29:48.040Z,20.93
2023-02-22T12:32:18.625Z,20.75
2023-02-22T12:34:55.285Z,20.98
2023-02-22T12:37:38.941Z,21.02
2023-02-22T12:40:08.824Z,21.16
2023-02-22T12:42:57.749Z,21.07
2023-02-22T12:45:38.804Z,21.21
2023-02-22T12:48:19.524Z,21.22
2023-02-22T12:50:49.624Z,21.53
2023-02-22T12:53:31.931Z,21.62
2023-02-22T12:56:26.992Z,22.23
2023-02-22T12:59:19.924Z,22.35
2023-02-22T13:01:54.149Z,22.52
2023-02-22T13:04:22.407Z,22.57
2023-02-22T13:07:04.583Z,22.42
2023-02-22T13:09:40.846Z,22.60
2023-02-22T13:12:23.465Z,22.71
2023-02-22T13:15:10.921Z,22.51
2023-02-22T13:17:40.954Z,22.71
2023-02-22T13:20:34.583Z,22.85
2023-02-22T13:23:10.684Z,22.99
2023-02-22T13:25:46.924Z,23.02
2023-02-22T13:28:24.809Z,23.08
2023-02-22T13:31:00.086Z,23.38
2023-02-22T13:34:06.055Z,24.11
2023-02-22T13:36:42.342Z,24.68
2023-02-22T13:39:15.341Z,25.34
2023-02-22T13:41:51.843Z,25.84
2023-02-22T13:44:28.003Z,26.54
2023-02-22T13:47:26.059Z,27.38
2023-02-22T13:50:25.796Z,28.25
2023-02-22T13:52:56.178Z,28.49
2023-02-22T13:55:30.090Z,28.94
2023-02-22T13:58:04.316Z,29.15
2023-02-22T14:00:51.676Z,29.04
2023-02-22T14:03:36.537Z,29.33
2023-02-22T14:06:09.138Z,29.12
2023-02-22T14:08:36.357Z,28.83
2023-02-22T14:11:12.814Z,28.33
2023-02-22T14:14:01.166Z,28.47
2023-02-22T14:16:34.150Z,28.31
2023-02-22T14:19:23.982Z,28.37
2023-02-22T14:22:02.516Z,27.24
2023-02-22T14:24:51.285Z,26.72
2023-02-22T14:27:18.588Z,25.84
2023-02-22T14:29:57.606Z,25.00
2023-02-22T14:32:32.848Z,23.78
2023-02-22T14:35:14.330Z,23.25
2023-02-22T14:37:55.278Z,22.73
2023-02-22T14:40:27.705Z,22.01
2023-02-22T14:43:10.307Z,21.67
2023-02-22T14:45:45.987Z,21.21
2023-02-22T14:48:28.178Z,20.73
2023-02-22T14:51:05.936Z,20.39
2023-02-22T14:53:47.396Z,20.10
2023-02-22T14:56:36.482Z,19.80
2023-02-22T14:59:20.018Z,19.53
2023-02-22T15:02:01.586Z,19.28
2023-02-22T15:04:33.192Z,19.05
2023-02-22T15:07:08.260Z,18.88
2023-02-22T15:09:37.770Z,18.72
2023-02-22T15:12:05.183Z,18.65
2023-02-22T15:14:39.195Z,18.56
2023-02-22T15:17:22.718Z,18.32
2023-02-22T15:19:50.298Z,18.23
2023-02-22T15:22:25.596Z,18.09
2023-02-22T15:25:06.659Z,17.96
2023-02-22T15:27:37.420Z,17.92
2023-02-22T15:30:18.562Z,17.84
2023-02-22T15:33:02.462Z,17.61
2023-02-22T15:35:32.023Z,17.52
2023-02-22T15:38:07.581Z,17.38
2023-02-22T15:40:36.341Z,17.21
2023-02-22T15:43:09.209Z,17.18
2023-02-22T15:45:43.315Z,17.04
2023-02-22T15:48:11.825Z,16.98
2023-02-22T15:50:39.306Z,16.94
2023-02-22T15:53:23.675Z,16.83
2023-02-22T15:55:58.112Z,16.72
2023-02-22T15:58:30.216Z,16.62
2023-02-22T16:01:07.923Z,16.50
2023-02-22T16:03:48.065Z,16.46
2023-02-22T16:06:37.428Z,16.35
2023-02-22T16:09:23.323Z,16.29
2023-02-22T16:11:50.592Z,16.24
2023-02-22T16:14:27.987Z,16.15
2023-02-22T16:17:35.755Z,16.07
2023-02-22T16:20:12.539Z,15.98
2023-02-22T16:22:41.444Z,15.94
2023-02-22T16:25:26.825Z,15.87
2023-02-22T16:28:01.706Z,15.79
2023-02-22T16:30:41.394Z,15.70
2023-02-22T16:33:16.726Z,15.57
2023-02-22T16:35:52.317Z,15.51
2023-02-22T16:38:21.401Z,15.44
2023-02-22T16:40:55.539Z,15.38
2023-02-22T16:43:26.180Z,15.20
2023-02-22T16:45:53.739Z,15.13
2023-02-22T16:48:24.279Z,15.05
2023-02-22T16:50:57.390Z,14.89
2023-02-22T16:53:29.562Z,14.83
2023-02-22T16:56:02.500Z,14.76
2023-02-22T16:58:34.460Z,14.66
2023-02-22T17:01:02.431Z,14.55
2023-02-22T17:03:30.289Z,14.49
2023-02-22T17:05:58.807Z,14.45
2023-02-22T17:08:26.700Z,14.36
2023-02-22T17:10:56.958Z,14.31
2023-02-22T17:13:27.380Z,14.19
2023-02-22T17:15:55.621Z,14.11
2023-02-22T17:18:28.954Z,14.06
2023-02-22T17:20:56.937Z,14.00
2023-02-22T17:23:24.511Z,13.93
2023-02-22T17:26:00.831Z,13.86
2023-02-22T17:28:28.478Z,13.79
2023-02-22T17:31:02.124Z,13.77
2023-02-22T17:33:33.241Z,13.71
2023-02-22T17:36:02.402Z,13.62
2023-02-22T17:38:30.612Z,13.57
2023-02-22T17:40:59.016Z,13.51
2023-02-22T17:43:31.002Z,13.45
2023-02-22T17:45:58.366Z,13.40
2023-02-22T17:48:26.343Z,13.32
2023-02-22T17:50:53.945Z,13.24
2023-02-22T17:53:25.064Z,13.22
2023-02-22T17:55:53.582Z,13.14
2023-02-22T17:58:22.598Z,13.08
2023-02-22T18:00:51.379Z,13.05
2023-02-22T18:03:25.986Z,12.98
2023-02-22T18:05:56.317Z,12.93
2023-02-22T18:08:26.565Z,12.88
2023-02-22T18:10:56.665Z,12.83
2023-02-22T18:13:26.422Z,12.78
2023-02-22T18:16:00.480Z,12.70
2023-02-22T18:18:28.269Z,12.69
2023-02-22T18:21:00.037Z,12.64
2023-02-22T18:23:29.802Z,12.58
2023-02-22T18:26:10.263Z,12.54
2023-02-22T18:28:38.491Z,12.48
2023-02-22T18:31:10.507Z,12.45
2023-02-22T18:33:38.116Z,12.40
2023-02-22T18:36:05.757Z,12.40
2023-02-22T18:38:34.520Z,12.37
2023-02-22T18:41:03.903Z,12.39
2023-02-22T18:43:37.801Z,12.34
2023-02-22T18:46:19.841Z,12.32
2023-02-22T18:48:49.229Z,12.30
2023-02-22T18:51:17.740Z,12.27
2023-02-22T18:53:47.709Z,12.22
2023-02-22T18:56:22.259Z,12.16
2023-02-22T18:59:02.864Z,12.16
2023-02-22T19:01:31.742Z,12.11
2023-02-22T19:04:00.781Z,12.08
2023-02-22T19:06:28.829Z,12.06
2023-02-22T19:08:56.339Z,12.04
2023-02-22T19:11:24.813Z,12.04
2023-02-22T19:13:54.200Z,11.99
2023-02-22T19:16:23.690Z,11.98
2023-02-22T19:18:52.775Z,11.96
2023-02-22T19:21:21.190Z,11.95
2023-02-22T19:23:49.138Z,11.92
2023-02-22T19:26:25.274Z,11.91
2023-02-22T19:28:54.872Z,11.88
2023-02-22T19:31:32.258Z,11.86
2023-02-22T19:34:11.826Z,11.81
2023-02-22T19:36:46.200Z,11.77
2023-02-22T19:39:16.682Z,11.76
2023-02-22T19:41:44.415Z,11.73
2023-02-22T19:44:12.632Z,11.70
2023-02-22T19:46:41.282Z,11.70
2023-02-22T19:49:08.598Z,11.59
2023-02-22T19:51:36.230Z,11.51
2023-02-22T19:54:05.798Z,11.42
2023-02-22T19:56:36.528Z,11.35
2023-02-22T19:59:09.736Z,11.29
2023-02-22T20:01:37.800Z,11.26
2023-02-22T20:04:18.171Z,11.22
2023-02-22T20:06:47.271Z,11.17
2023-02-22T20:09:20.056Z,11.11
2023-02-22T20:11:48.164Z,11.06
2023-02-22T20:14:25.080Z,10.99
2023-02-22T20:16:55.234Z,10.98
2023-02-22T20:19:23.032Z,10.94
2023-02-22T20:21:59.053Z,10.89
2023-02-22T20:24:27.922Z,10.85
2023-02-22T20:26:57.620Z,10.77
2023-02-22T20:29:29.945Z,10.69
2023-02-22T20:32:02.674Z,10.67
2023-02-22T20:34:33.732Z,10.64
2023-02-22T20:37:01.878Z,10.62
2023-02-22T20:39:29.517Z,10.61
2023-02-22T20:41:56.902Z,10.51
2023-02-22T20:44:24.063Z,10.56
2023-02-22T20:46:51.211Z,10.52
2023-02-22T20:49:20.055Z,10.53
2023-02-22T20:51:48.385Z,10.51
2023-02-22T20:54:17.044Z,10.50
2023-02-22T20:56:46.234Z,10.43
2023-02-22T20:59:15.526Z,10.38
2023-02-22T21:01:43.374Z,10.34
2023-02-22T21:04:12.534Z,10.29
2023-02-22T21:06:40.523Z,10.25
2023-02-22T21:09:12.744Z,10.19
2023-02-22T21:11:40.543Z,10.16
2023-02-22T21:14:07.804Z,10.13
2023-02-22T21:16:37.618Z,10.08
2023-02-22T21:19:07.595Z,10.06
2023-02-22T21:21:36.065Z,10.07
2023-02-22T21:24:03.372Z,10.05
2023-02-22T21:26:34.076Z,9.97
2023-02-22T21:29:05.241Z,9.92
2023-02-22T21:31:34.329Z,9.94
2023-02-22T21:34:02.323Z,9.90
2023-02-22T21:36:30.377Z,9.92
2023-02-22T21:39:00.172Z,9.93
2023-02-22T21:41:31.520Z,9.98
2023-02-22T21:43:59.382Z,10.00
2023-02-22T21:46:29.418Z,10.02
2023-02-22T21:48:58.960Z,10.00
2023-02-22T21:51:34.481Z,9.97
2023-02-22T21:54:05.311Z,9.90
2023-02-22T21:56:36.543Z,9.83
2023-02-22T21:59:11.856Z,9.74
2023-02-22T22:01:47.718Z,9.68
2023-02-22T22:04:20.765Z,9.51
2023-02-22T22:06:52.521Z,9.47
2023-02-22T22:09:22.021Z,9.40
2023-02-22T22:11:51.644Z,9.33
2023-02-22T22:14:20.106Z,9.33
2023-02-22T22:16:52.962Z,9.35
2023-02-22T22:19:20.261Z,9.35
2023-02-22T22:21:48.983Z,9.40
2023-02-22T22:24:16.267Z,9.45
2023-02-22T22:26:44.282Z,9.48
2023-02-22T22:29:11.684Z,9.48
2023-02-22T22:31:39.016Z,9.41
2023-02-22T22:34:06.491Z,9.37
2023-02-22T22:36:34.682Z,9.36
2023-02-22T22:39:02.196Z,9.34
2023-02-22T22:41:29.237Z,9.31
2023-02-22T22:43:56.759Z,9.28
2023-02-22T22:46:24.021Z,9.26
2023-02-22T22:48:51.255Z,9.27
2023-02-22T22:51:21.179Z,9.21
2023-02-22T22:53:49.958Z,9.22
2023-02-22T22:56:20.208Z,9.22
2023-02-22T22:58:58.373Z,9.22
2023-02-22T23:01:34.024Z,9.25
2023-02-22T23:04:03.514Z,9.27
2023-02-22T23:06:33.384Z,9.28
2023-02-22T23:09:11.714Z,9.30
2023-02-22T23:11:45.014Z,9.30
2023-02-22T23:14:21.385Z,9.29
2023-02-22T23:16:50.298Z,9.26
2023-02-22T23:19:19.472Z,9.26
2023-02-22T23:21:48.937Z,9.27
2023-02-22T23:24:17.958Z,9.27
2023-02-22T23:26:49.095Z,9.25
2023-02-22T23:29:17.968Z,9.23
2023-02-22T23:31:48.451Z,9.19
2023-02-22T23:34:21.527Z,9.19
2023-02-22T23:36:49.622Z,9.16
2023-02-22T23:39:22.264Z,9.17
2023-02-22T23:41:59.585Z,9.17
2023-02-22T23:44:28.197Z,9.15
2023-02-22T23:46:55.962Z,9.13
2023-02-22T23:49:35.949Z,9.11
2023-02-22T23:52:07.575Z,9.09
2023-02-22T23:54:44.126Z,9.07
2023-02-22T23:57:11.657Z,9.05
2023-02-22T23:59:41.458Z,8.98
